Messwerte Interlaken

Temperatur

Temperatur
°C
1501117200 3.00 3.00 11.9
1501120800 4.00 4.00 12.5
1501124400 5.00 5.00 12.5
1501128000 6.00 6.00 13.1
1501131600 7.00 7.00 13.3
1501135200 8.00 8.00 13.7
1501138800 9.00 9.00 14.3
1501142400 10.00 10.00 15.7
1501146000 11.00 11.00 17.6
1501149600 12.00 12.00 18.4
1501153200 13.00 13.00 19.2
1501156800 14.00 14.00 20.7
1501160400 15.00 15.00 21.6
1501164000 16.00 16.00 22.4
1501167600 17.00 17.00 21.8
1501171200 18.00 18.00 21.3
1501174800 19.00 19.00 22.4
1501178400 20.00 20.00 20.3
1501182000 21.00 21.00 19.4
1501185600 22.00 22.00 18.5
1501189200 23.00 23.00 18.1
1501192800 0.00 0.00 17.5
1501196400 1.00 1.00 19.2
1501200000 2.00 2.00 17.2

Sonnenschein

Sonnenscheindauer
min
1501117200 3.00 2.00 - 3.00 0
1501120800 4.00 3.00 - 4.00
1501124400 5.00 4.00 - 5.00
1501128000 6.00 5.00 - 6.00
1501131600 7.00 6.00 - 7.00
1501135200 8.00 7.00 - 8.00
1501138800 9.00 8.00 - 9.00 0
1501142400 10.00 9.00 - 10.00 0
1501146000 11.00 10.00 - 11.00 43
1501149600 12.00 11.00 - 12.00 8
1501153200 13.00 12.00 - 13.00 0
1501156800 14.00 13.00 - 14.00 28
1501160400 15.00 14.00 - 15.00 2
1501164000 16.00 15.00 - 16.00 10
1501167600 17.00 16.00 - 17.00 6
1501171200 18.00 17.00 - 18.00 0
1501174800 19.00 18.00 - 19.00 0
1501178400 20.00 19.00 - 20.00 0
1501182000 21.00 20.00 - 21.00 0
1501185600 22.00 21.00 - 22.00 0
1501189200 23.00 22.00 - 23.00 0
1501192800 0.00 23.00 - 0.00 0
1501196400 1.00 0.00 - 1.00 0
1501200000 2.00 1.00 - 2.00

Aktuellste Messwerte

Temperatur
17.2 °C
Feuchtigkeit
89 %
Wind
5 km/hWindrichtung: Südwest
Böen
15 km/h
Niederschlag
0.0 mm
Sonne
0 min
Luftdruck
1013.2 hPa
Globalstrahlung
1 W/m²
Messzeit: 28. Juli 2017, 2.00Datenquelle: MeteoSchweiz

Weitere Messstationen in der Nähe

Messstation Temperatur Entfernung
Grindelwald 16.1 °C 15 km
Brienz 17.2 °C 15 km
Jungfraujoch -0.3 °C 16 km
Frutigen 16.1 °C 20 km
Thun 16.8 °C 21 km
Thierachern 16.3 °C 23 km
Meiringen 16.2 °C 24 km

Niederschlag

Niederschlagsmenge
mm
1501117200 3.00 2.00 - 3.00 0.0
1501120800 4.00 3.00 - 4.00 0.0
1501124400 5.00 4.00 - 5.00
1501128000 6.00 5.00 - 6.00
1501131600 7.00 6.00 - 7.00 0.0
1501135200 8.00 7.00 - 8.00 0.0
1501138800 9.00 8.00 - 9.00 0.0
1501142400 10.00 9.00 - 10.00 0.0
1501146000 11.00 10.00 - 11.00 0.0
1501149600 12.00 11.00 - 12.00 0.0
1501153200 13.00 12.00 - 13.00 0.0
1501156800 14.00 13.00 - 14.00 0.0
1501160400 15.00 14.00 - 15.00 0.0
1501164000 16.00 15.00 - 16.00 0.0
1501167600 17.00 16.00 - 17.00 0.0
1501171200 18.00 17.00 - 18.00 0.0
1501174800 19.00 18.00 - 19.00 0.0
1501178400 20.00 19.00 - 20.00 0.0
1501182000 21.00 20.00 - 21.00 0.0
1501185600 22.00 21.00 - 22.00 0.0
1501189200 23.00 22.00 - 23.00 0.0
1501192800 0.00 23.00 - 0.00 0.0
1501196400 1.00 0.00 - 1.00 0.2
1501200000 2.00 1.00 - 2.00

Wind

Windrichtung Böen Mittelwind
° km/h km/h
1501117200 3.00 2.00 - 3.00 250° 6 2
1501120800 4.00 3.00 - 4.00 240° 4 2
1501124400 5.00 4.00 - 5.00 80° 4 1
1501128000 6.00 5.00 - 6.00 umlaufend 3 1
1501131600 7.00 6.00 - 7.00 150° 6 2
1501135200 8.00 7.00 - 8.00 100° 12 5
1501138800 9.00 8.00 - 9.00 50° 9 4
1501142400 10.00 9.00 - 10.00 70° 7 3
1501146000 11.00 10.00 - 11.00 40° 21 9
1501149600 12.00 11.00 - 12.00 30° 20 11
1501153200 13.00 12.00 - 13.00 80° 10 5
1501156800 14.00 13.00 - 14.00 20° 14 5
1501160400 15.00 14.00 - 15.00 360° 16 7
1501164000 16.00 15.00 - 16.00 90° 19 10
1501167600 17.00 16.00 - 17.00 40° 16 9
1501171200 18.00 17.00 - 18.00 70° 15 8
1501174800 19.00 18.00 - 19.00 360° 12 5
1501178400 20.00 19.00 - 20.00 40° 13 5
1501182000 21.00 20.00 - 21.00 240° 12 3
1501185600 22.00 21.00 - 22.00 290° 8 3
1501189200 23.00 22.00 - 23.00 210° 5 1
1501192800 0.00 23.00 - 0.00 110° 7 2
1501196400 1.00 0.00 - 1.00 240° 44 9
1501200000 2.00 1.00 - 2.00 170° 15 5

Ihre Wetterstation

Fehlt Ihre Wetterstation auf unserem Portal?

Schreiben Sie an network@meteonews.ch

Klima

Wann ist es am wärmsten? Wann regnet es am wenigsten? Unsere Klimadaten geben Auskunft.